Terminal Aerodrome Forecast
Issued by NWS Twin Cities, MN

Home | Current Version | Previous Version | Text Only | Print | Product List | Glossary Off
Versions: 1 2 3 4 5 6 7 8 9 10 11 12 13 14 15 16 17 18 19 20

000
FTUS43 KMPX 271700
TAFSTC
TAF
KSTC 271720Z 2718/2818 18003KT P6SM SCT030 SCT070 SCT250
     FM280800 12004KT P6SM OVC120
     FM281200 13005KT 6SM BR OVC050=

USA.gov is the U.S. government's official web portal to all federal, state and local government web resources and services.